Time;durP1;ratioP1;P1;durP2;ratioP2;P2;SDS_P1;SDS_P2;PMS_P1;PMS_P2;Temp;Humidity;BMP_temperature;BMP_pressure;BME280_temperature;BME280_humidity;BME280_pressure;Samples;Min_cycle;Max_cycle;Signal;HPM_P1;HPM_P2
2022/01/10 00:01:53;;;;;;;;;;;;;;;;;;4992843;28;20333;-60
2022/01/10 00:04:19;;;;;;;;;;;;;;;;;;4991456;28;19926;-57
2022/01/10 00:06:45;;;;;;;;;;;;;;;;;;4993359;28;20383;-57
2022/01/10 00:09:10;;;;;;;;;;;;;;;;;;4990696;28;19933;-58
2022/01/10 00:11:36;;;;;;;;;;;;;;;;;;4995751;28;19952;-58
2022/01/10 00:14:01;;;;;;;;;;;;;;;;;;4992628;28;19936;-59
2022/01/10 00:16:26;;;;;;;;;;;;;;;;;;4993345;28;20595;-59
2022/01/10 00:18:52;;;;;;;;;;;;;;;;;;4993029;28;20036;-57
2022/01/10 00:21:17;;;;;;;;;;;;;;;;;;4992152;28;20025;-57
2022/01/10 00:23:43;;;;;;;;;;;;;;;;;;4992582;28;19957;-57
2022/01/10 00:26:08;;;;;;;;;;;;;;;;;;4992429;28;19926;-58
2022/01/10 00:28:33;;;;;;;;;;;;;;;;;;4992070;28;19928;-59
2022/01/10 00:30:59;;;;;;;;;;;;;;;;;;4996497;28;20008;-59
2022/01/10 00:33:24;;;;;;;;;;;;;;;;;;4990742;28;19932;-58
2022/01/10 00:35:50;;;;;;;;;;;;;;;;;;4994411;28;19922;-59
2022/01/10 00:38:15;;;;;;;;;;;;;;;;;;4991967;28;19925;-57
2022/01/10 00:40:42;;;;;;;;;;;;;;;;;;4991422;28;19930;-55
2022/01/10 00:43:08;;;;;;;;;;;;;;;;;;4992417;28;19922;-56
2022/01/10 00:45:34;;;;;;;;;;;;;;;;;;4994861;28;19958;-54
2022/01/10 00:47:59;;;;;;;;;;;;;;;;;;4992493;28;19968;-57
2022/01/10 00:50:24;;;;;;;;;;;;;;;;;;4992206;28;19933;-59
2022/01/10 00:52:50;;;;;;;;;;;;;;;;;;4992783;28;19926;-56
2022/01/10 00:55:16;;;;;;;;;;;;;;;;;;4994593;28;19926;-56
2022/01/10 00:57:42;;;;;;;;;;;;;;;;;;4992540;28;19922;-57
2022/01/10 01:00:07;;;;;;;;;;;;;;;;;;4992532;28;19933;-57
2022/01/10 01:02:33;;;;;;;;;;;;;;;;;;4992192;28;19968;-57
2022/01/10 01:04:58;;;;;;;;;;;;;;;;;;4992998;28;20055;-58
2022/01/10 01:07:24;;;;;;;;;;;;;;;;;;4991590;28;19925;-58
2022/01/10 01:09:59;;;;;;;;;;;;;;;;;;4993699;28;19987;-58
2022/01/10 01:12:44;;;;;;;;;;;;;;;;;;4993828;28;19925;-58
2022/01/10 01:15:23;;;;;;;;;;;;;;;;;;4993757;28;19921;-59
2022/01/10 01:25:48;;;;;;;;;;;;;;;;;;4998033;28;19996;-58
2022/01/10 01:28:13;;;;;;;;;;;;;;;;;;4995819;28;19930;-57
2022/01/10 01:30:39;;;;;;;;;;;;;;;;;;4997659;28;19936;-58
2022/01/10 01:33:24;;;;;;;;;;;;;;;;;;4978738;28;19926;-58
2022/01/10 01:35:51;;;;;;;;;;;;;;;;;;4979873;28;19961;-56
2022/01/10 01:38:17;;;;;;;;;;;;;;;;;;4977945;28;19921;-56
2022/01/10 01:40:53;;;;;;;;;;;;;;;;;;4997779;28;19944;-54
2022/01/10 01:43:19;;;;;;;;;;;;;;;;;;4996794;28;19993;-59
2022/01/10 01:45:44;;;;;;;;;;;;;;;;;;4998027;28;19922;-59
2022/01/10 01:48:09;;;;;;;;;;;;;;;;;;4998267;28;20820;-58
2022/01/10 01:50:35;;;;;;;;;;;;;;;;;;4994874;28;19934;-59
2022/01/10 01:53:00;;;;;;;;;;;;;;;;;;4997452;28;19929;-58
2022/01/10 01:55:26;;;;;;;;;;;;;;;;;;4998787;28;19960;-58
2022/01/10 01:57:51;;;;;;;;;;;;;;;;;;4999960;28;20021;-55
2022/01/10 02:00:19;;;;;;;;;;;;;;;;;;4998361;28;20046;-58
2022/01/10 02:02:45;;;;;;;;;;;;;;;;;;4997192;28;19921;-59
2022/01/10 02:05:10;;;;;;;;;;;;;;;;;;4998667;28;19932;-58
2022/01/10 02:07:35;;;;;;;;;;;;;;;;;;4998112;28;19928;-59
2022/01/10 02:10:01;;;;;;;;;;;;;;;;;;5000295;28;19925;-58
2022/01/10 02:12:26;;;;;;;;;;;;;;;;;;5013531;28;19926;-59
2022/01/10 02:14:52;;;;;;;;;;;;;;;;;;5017792;28;19921;-57
2022/01/10 02:17:22;;;;;;;;;;;;;;;;;;5013758;28;19925;-58
2022/01/10 02:20:02;;;;;;;;;;;;;;;;;;5036350;28;19933;-58
2022/01/10 02:22:28;;;;;;;;;;;;;;;;;;5036082;28;19920;-58
2022/01/10 02:24:53;;;;;;;;;;;;;;;;;;5036455;28;20562;-57
2022/01/10 02:27:18;;;;;;;;;;;;;;;;;;5037725;28;19982;-57
2022/01/10 02:29:44;;;;;;;;;;;;;;;;;;5007510;28;19967;-56
2022/01/10 02:32:09;;;;;;;;;;;;;;;;;;5016518;28;19921;-59
2022/01/10 02:34:35;;;;;;;;;;;;;;;;;;5040028;28;20019;-55
2022/01/10 02:37:00;;;;;;;;;;;;;;;;;;5036391;28;19986;-58
2022/01/10 02:39:26;;;;;;;;;;;;;;;;;;5034394;28;20411;-57
2022/01/10 02:41:51;;;;;;;;;;;;;;;;;;5036123;28;19931;-58
2022/01/10 02:44:17;;;;;;;;;;;;;;;;;;5035654;28;19927;-58
2022/01/10 02:46:42;;;;;;;;;;;;;;;;;;5036295;28;19962;-55
2022/01/10 02:49:08;;;;;;;;;;;;;;;;;;5035800;28;19948;-58
2022/01/10 02:51:33;;;;;;;;;;;;;;;;;;5035046;28;19939;-58
2022/01/10 02:53:58;;;;;;;;;;;;;;;;;;5022017;28;19944;-58
2022/01/10 02:56:24;;;;;;;;;;;;;;;;;;5031796;28;19920;-58
2022/01/10 02:58:49;;;;;;;;;;;;;;;;;;5014093;28;19931;-58
2022/01/10 03:01:15;;;;;;;;;;;;;;;;;;5013881;28;20333;-58
2022/01/10 03:03:40;;;;;;;;;;;;;;;;;;5013024;28;20012;-58
2022/01/10 03:06:06;;;;;;;;;;;;;;;;;;5015062;28;20424;-57
2022/01/10 03:08:33;;;;;;;;;;;;;;;;;;5011470;28;20601;-57
2022/01/10 03:10:58;;;;;;;;;;;;;;;;;;5014209;28;19928;-57
2022/01/10 03:13:24;;;;;;;;;;;;;;;;;;5015671;28;19921;-56
2022/01/10 03:15:49;;;;;;;;;;;;;;;;;;5017706;28;19936;-57
2022/01/10 03:18:15;;;;;;;;;;;;;;;;;;5019127;28;19925;-59
2022/01/10 03:20:40;;;;;;;;;;;;;;;;;;5037214;28;19987;-58
2022/01/10 03:23:05;;;;;;;;;;;;;;;;;;5017946;28;19975;-59
2022/01/10 03:25:31;;;;;;;;;;;;;;;;;;5014345;28;19921;-59
2022/01/10 03:27:56;;;;;;;;;;;;;;;;;;5013896;28;20504;-58
2022/01/10 03:30:22;;;;;;;;;;;;;;;;;;5015846;28;19925;-57
2022/01/10 03:32:50;;;;;;;;;;;;;;;;;;5019571;28;19925;-58
2022/01/10 03:35:15;;;;;;;;;;;;;;;;;;5020716;28;20020;-58
2022/01/10 03:37:41;;;;;;;;;;;;;;;;;;5010185;28;20032;-59
2022/01/10 03:40:06;;;;;;;;;;;;;;;;;;5022651;28;20389;-56
2022/01/10 03:42:32;;;;;;;;;;;;;;;;;;5024241;28;19917;-58
2022/01/10 03:44:57;;;;;;;;;;;;;;;;;;5022944;28;19925;-59
2022/01/10 03:47:23;;;;;;;;;;;;;;;;;;5012239;28;19927;-58
2022/01/10 03:49:49;;;;;;;;;;;;;;;;;;5012657;28;19940;-59
2022/01/10 03:52:14;;;;;;;;;;;;;;;;;;5012428;28;19921;-57
2022/01/10 03:54:40;;;;;;;;;;;;;;;;;;5012605;28;19925;-58
2022/01/10 03:57:06;;;;;;;;;;;;;;;;;;5016604;28;20417;-56
2022/01/10 03:59:31;;;;;;;;;;;;;;;;;;5012021;28;21926;-57
2022/01/10 04:01:56;;;;;;;;;;;;;;;;;;5014633;28;19921;-54
2022/01/10 04:04:22;;;;;;;;;;;;;;;;;;5013055;28;20463;-57
2022/01/10 04:06:47;;;;;;;;;;;;;;;;;;5013682;28;20320;-57
2022/01/10 04:09:13;;;;;;;;;;;;;;;;;;5013215;28;19927;-56
2022/01/10 04:11:38;;;;;;;;;;;;;;;;;;5014491;28;19944;-55
2022/01/10 04:14:03;;;;;;;;;;;;;;;;;;5013986;28;19920;-56
2022/01/10 04:16:29;;;;;;;;;;;;;;;;;;5013165;28;20040;-56
2022/01/10 04:18:54;;;;;;;;;;;;;;;;;;5013139;28;19969;-57
2022/01/10 04:21:20;;;;;;;;;;;;;;;;;;5012014;28;20013;-57
2022/01/10 04:23:45;;;;;;;;;;;;;;;;;;5012919;28;19921;-58
2022/01/10 04:26:11;;;;;;;;;;;;;;;;;;5013442;28;20004;-58
2022/01/10 04:28:36;;;;;;;;;;;;;;;;;;5010610;28;19926;-58
2022/01/10 04:31:03;;;;;;;;;;;;;;;;;;5013825;28;20384;-56
2022/01/10 04:33:30;;;;;;;;;;;;;;;;;;5011292;28;19952;-58
2022/01/10 04:35:55;;;;;;;;;;;;;;;;;;5013690;28;20390;-59
2022/01/10 04:38:20;;;;;;;;;;;;;;;;;;5011998;28;19926;-60
2022/01/10 04:40:46;;;;;;;;;;;;;;;;;;5012232;28;19936;-56
2022/01/10 04:43:11;;;;;;;;;;;;;;;;;;5011882;28;19921;-57
2022/01/10 04:45:37;;;;;;;;;;;;;;;;;;5012434;28;19932;-58
2022/01/10 04:48:02;;;;;;;;;;;;;;;;;;5012196;28;19928;-58
2022/01/10 04:53:11;;;;;;;;;;;;;;;;;;5013483;28;19927;-59
2022/01/10 04:55:37;;;;;;;;;;;;;;;;;;5012084;28;19926;-57
2022/01/10 04:58:02;;;;;;;;;;;;;;;;;;5011062;28;19961;-58
2022/01/10 05:00:28;;;;;;;;;;;;;;;;;;5011930;28;19933;-58
2022/01/10 05:02:53;;;;;;;;;;;;;;;;;;5012096;28;19928;-59
2022/01/10 05:05:18;;;;;;;;;;;;;;;;;;5026458;28;19934;-59
2022/01/10 05:07:44;;;;;;;;;;;;;;;;;;5013222;28;19934;-60
2022/01/10 05:10:09;;;;;;;;;;;;;;;;;;5012368;28;19936;-59
2022/01/10 05:12:35;;;;;;;;;;;;;;;;;;5010817;28;19925;-60
2022/01/10 05:15:00;;;;;;;;;;;;;;;;;;5013289;28;19928;-57
2022/01/10 05:17:25;;;;;;;;;;;;;;;;;;5012344;28;21627;-59
2022/01/10 05:19:51;;;;;;;;;;;;;;;;;;5012235;28;19929;-59
2022/01/10 05:22:16;;;;;;;;;;;;;;;;;;5011949;28;19928;-60
2022/01/10 05:24:42;;;;;;;;;;;;;;;;;;5011547;28;19921;-60
2022/01/10 05:27:07;;;;;;;;;;;;;;;;;;5010953;28;20003;-59
2022/01/10 05:29:32;;;;;;;;;;;;;;;;;;5011045;28;19947;-59
2022/01/10 05:31:58;;;;;;;;;;;;;;;;;;5010466;28;20258;-59
2022/01/10 05:34:23;;;;;;;;;;;;;;;;;;5010844;28;19969;-57
2022/01/10 05:36:48;;;;;;;;;;;;;;;;;;5011995;28;20024;-55
2022/01/10 05:39:14;;;;;;;;;;;;;;;;;;5011125;28;19921;-58
2022/01/10 05:41:39;;;;;;;;;;;;;;;;;;5011074;28;20290;-59
2022/01/10 05:44:05;;;;;;;;;;;;;;;;;;5012865;28;19925;-58
2022/01/10 05:46:30;;;;;;;;;;;;;;;;;;5010458;28;19921;-60
2022/01/10 05:49:00;;;;;;;;;;;;;;;;;;5011201;28;19984;-59
2022/01/10 05:51:32;;;;;;;;;;;;;;;;;;5011175;28;20040;-59
2022/01/10 05:53:58;;;;;;;;;;;;;;;;;;5012618;28;19925;-60
2022/01/10 05:56:23;;;;;;;;;;;;;;;;;;5012081;28;19917;-59
2022/01/10 05:58:49;;;;;;;;;;;;;;;;;;5009918;28;20369;-58
2022/01/10 06:01:15;;;;;;;;;;;;;;;;;;5011557;28;19929;-58
2022/01/10 06:03:40;;;;;;;;;;;;;;;;;;5027961;28;19951;-56
2022/01/10 06:06:06;;;;;;;;;;;;;;;;;;5014860;28;19933;-58
2022/01/10 06:08:31;;;;;;;;;;;;;;;;;;5013055;28;19925;-59
2022/01/10 06:10:57;;;;;;;;;;;;;;;;;;5013496;28;19921;-56
2022/01/10 06:13:22;;;;;;;;;;;;;;;;;;5015609;28;20107;-59
2022/01/10 06:15:48;;;;;;;;;;;;;;;;;;5016015;28;19921;-58
2022/01/10 06:18:13;;;;;;;;;;;;;;;;;;5013847;28;20294;-58
2022/01/10 06:20:38;;;;;;;;;;;;;;;;;;5013471;28;19929;-60
2022/01/10 06:23:04;;;;;;;;;;;;;;;;;;5017463;28;19967;-59
2022/01/10 06:25:29;;;;;;;;;;;;;;;;;;5013425;28;20381;-56
2022/01/10 06:27:56;;;;;;;;;;;;;;;;;;5015233;28;20004;-59
2022/01/10 06:30:21;;;;;;;;;;;;;;;;;;5013703;28;19925;-58
2022/01/10 06:32:47;;;;;;;;;;;;;;;;;;5009717;28;19928;-57
2022/01/10 06:35:12;;;;;;;;;;;;;;;;;;5013746;28;19933;-60
2022/01/10 06:37:37;;;;;;;;;;;;;;;;;;5014169;28;19979;-58
2022/01/10 06:40:03;;;;;;;;;;;;;;;;;;5013618;28;19936;-59
2022/01/10 06:42:28;;;;;;;;;;;;;;;;;;5013654;28;20366;-59
2022/01/10 06:44:53;;;;;;;;;;;;;;;;;;5013496;28;19925;-56
2022/01/10 06:47:19;;;;;;;;;;;;;;;;;;5014799;28;19925;-59
2022/01/10 06:49:44;;;;;;;;;;;;;;;;;;5013980;28;19944;-58
2022/01/10 06:52:10;;;;;;;;;;;;;;;;;;5015800;28;19921;-59
2022/01/10 06:54:35;;;;;;;;;;;;;;;;;;5015469;28;19921;-59
2022/01/10 06:57:02;;;;;;;;;;;;;;;;;;5014567;28;20939;-59
2022/01/10 06:59:28;;;;;;;;;;;;;;;;;;5013077;28;19928;-58
2022/01/10 07:01:53;;;;;;;;;;;;;;;;;;5016155;28;20305;-58
2022/01/10 07:04:18;;;;;;;;;;;;;;;;;;5015331;28;19925;-58
2022/01/10 07:06:44;;;;;;;;;;;;;;;;;;5016753;28;19921;-59
2022/01/10 07:09:09;;;;;;;;;;;;;;;;;;5013995;28;19925;-59
2022/01/10 07:11:34;;;;;;;;;;;;;;;;;;5014120;28;19933;-58
2022/01/10 07:14:00;;;;;;;;;;;;;;;;;;5030573;28;20062;-60
2022/01/10 07:16:25;;;;;;;;;;;;;;;;;;5014741;28;19955;-58
2022/01/10 07:18:51;;;;;;;;;;;;;;;;;;5013526;28;19921;-59
2022/01/10 07:21:16;;;;;;;;;;;;;;;;;;5013347;28;19976;-56
2022/01/10 07:23:41;;;;;;;;;;;;;;;;;;5013757;28;19967;-60
2022/01/10 07:26:07;;;;;;;;;;;;;;;;;;5013464;28;19926;-57
2022/01/10 07:28:32;;;;;;;;;;;;;;;;;;4999211;28;19987;-59
2022/01/10 07:30:58;;;;;;;;;;;;;;;;;;5012676;28;19944;-59
2022/01/10 07:33:23;;;;;;;;;;;;;;;;;;5012709;28;19926;-57
2022/01/10 07:35:49;;;;;;;;;;;;;;;;;;5013243;28;19921;-58
2022/01/10 07:38:14;;;;;;;;;;;;;;;;;;5008773;28;19929;-59
2022/01/10 07:40:39;;;;;;;;;;;;;;;;;;5013017;28;19952;-59
2022/01/10 07:43:05;;;;;;;;;;;;;;;;;;5012706;28;19925;-57
2022/01/10 07:45:30;;;;;;;;;;;;;;;;;;5011530;28;20299;-58
2022/01/10 07:47:56;;;;;;;;;;;;;;;;;;5014199;28;19968;-58
2022/01/10 07:50:21;;;;;;;;;;;;;;;;;;5012390;28;19933;-55
2022/01/10 07:52:46;;;;;;;;;;;;;;;;;;5012940;28;20392;-58
2022/01/10 07:55:12;;;;;;;;;;;;;;;;;;5013406;28;19932;-57
2022/01/10 07:57:37;;;;;;;;;;;;;;;;;;5012012;28;19961;-59
2022/01/10 08:00:03;;;;;;;;;;;;;;;;;;5013736;28;19941;-58
2022/01/10 08:02:28;;;;;;;;;;;;;;;;;;5011719;28;20016;-57
2022/01/10 08:04:53;;;;;;;;;;;;;;;;;;5012686;28;19922;-59
2022/01/10 08:07:19;;;;;;;;;;;;;;;;;;5011290;28;19990;-59
2022/01/10 08:09:44;;;;;;;;;;;;;;;;;;5011879;28;19936;-58
2022/01/10 08:12:09;;;;;;;;;;;;;;;;;;5012606;28;21787;-59
2022/01/10 08:14:35;;;;;;;;;;;;;;;;;;5011285;28;19969;-59
2022/01/10 08:17:00;;;;;;;;;;;;;;;;;;5011923;28;20020;-59
2022/01/10 08:19:30;;;;;;;;;;;;;;;;;;5011320;28;20416;-58
2022/01/10 08:21:55;;;;;;;;;;;;;;;;;;5011391;28;20329;-59
2022/01/10 08:24:22;;;;;;;;;;;;;;;;;;5012983;28;19928;-60
2022/01/10 08:26:47;;;;;;;;;;;;;;;;;;5013037;28;19926;-58
2022/01/10 08:29:13;;;;;;;;;;;;;;;;;;5012071;28;19921;-59
2022/01/10 08:31:38;;;;;;;;;;;;;;;;;;5015216;28;19932;-59
2022/01/10 08:34:04;;;;;;;;;;;;;;;;;;5012411;28;20289;-57
2022/01/10 08:36:30;;;;;;;;;;;;;;;;;;5012069;28;19998;-57
2022/01/10 08:38:55;;;;;;;;;;;;;;;;;;5013302;28;19929;-58
2022/01/10 08:41:20;;;;;;;;;;;;;;;;;;5012736;28;19933;-56
2022/01/10 08:43:46;;;;;;;;;;;;;;;;;;5011455;28;19947;-59
2022/01/10 08:46:11;;;;;;;;;;;;;;;;;;5012702;28;19936;-59
2022/01/10 08:48:37;;;;;;;;;;;;;;;;;;5015012;28;19932;-58
2022/01/10 08:51:02;;;;;;;;;;;;;;;;;;5014250;28;19933;-58
2022/01/10 08:53:27;;;;;;;;;;;;;;;;;;5012612;28;20377;-59
2022/01/10 08:55:53;;;;;;;;;;;;;;;;;;5014738;28;19922;-59
2022/01/10 08:58:19;;;;;;;;;;;;;;;;;;5019504;28;19921;-59
2022/01/10 09:00:44;;;;;;;;;;;;;;;;;;5017285;28;20008;-59
2022/01/10 09:03:09;;;;;;;;;;;;;;;;;;5020050;28;19928;-58
2022/01/10 09:05:35;;;;;;;;;;;;;;;;;;5017202;28;19925;-58
2022/01/10 09:08:01;;;;;;;;;;;;;;;;;;5018021;28;19932;-59
2022/01/10 09:10:26;;;;;;;;;;;;;;;;;;5017510;28;19928;-58
2022/01/10 09:12:52;;;;;;;;;;;;;;;;;;5016315;28;19925;-58
2022/01/10 09:15:17;;;;;;;;;;;;;;;;;;5012717;28;19925;-59
2022/01/10 09:17:43;;;;;;;;;;;;;;;;;;5010262;28;19921;-58
2022/01/10 09:20:08;;;;;;;;;;;;;;;;;;5012324;28;19933;-58
2022/01/10 09:22:33;;;;;;;;;;;;;;;;;;5012896;28;20007;-58
2022/01/10 09:25:00;;;;;;;;;;;;;;;;;;5012961;28;19955;-57
2022/01/10 09:27:25;;;;;;;;;;;;;;;;;;5010637;28;19925;-57
2022/01/10 09:29:50;;;;;;;;;;;;;;;;;;5013197;28;19927;-58
2022/01/10 09:32:16;;;;;;;;;;;;;;;;;;5012793;28;20385;-56
2022/01/10 09:34:41;;;;;;;;;;;;;;;;;;5011009;28;19925;-58
2022/01/10 09:37:06;;;;;;;;;;;;;;;;;;5011987;28;19933;-57
2022/01/10 09:39:32;;;;;;;;;;;;;;;;;;5014892;28;19979;-57
2022/01/10 09:41:57;;;;;;;;;;;;;;;;;;5015539;28;19975;-58
2022/01/10 09:44:23;;;;;;;;;;;;;;;;;;5014712;28;19949;-58
2022/01/10 09:46:48;;;;;;;;;;;;;;;;;;5016638;28;19925;-58
2022/01/10 09:49:14;;;;;;;;;;;;;;;;;;5015690;28;20500;-58
2022/01/10 09:51:39;;;;;;;;;;;;;;;;;;5015296;28;20024;-58
2022/01/10 09:54:05;;;;;;;;;;;;;;;;;;5016182;28;19944;-56
2022/01/10 09:56:30;;;;;;;;;;;;;;;;;;5015100;28;19940;-55
2022/01/10 09:58:57;;;;;;;;;;;;;;;;;;5013921;28;20467;-57
2022/01/10 10:01:22;;;;;;;;;;;;;;;;;;5015805;28;20072;-58
2022/01/10 10:03:48;;;;;;;;;;;;;;;;;;5014687;28;19977;-58
2022/01/10 10:06:13;;;;;;;;;;;;;;;;;;5015595;28;19925;-57
2022/01/10 10:08:39;;;;;;;;;;;;;;;;;;5014308;28;19924;-57
2022/01/10 10:11:05;;;;;;;;;;;;;;;;;;5014612;28;20062;-56
2022/01/10 10:13:30;;;;;;;;;;;;;;;;;;5014868;28;19922;-57
2022/01/10 10:15:56;;;;;;;;;;;;;;;;;;5015448;28;19994;-58
2022/01/10 10:18:22;;;;;;;;;;;;;;;;;;5012172;28;19975;-57
2022/01/10 10:20:47;;;;;;;;;;;;;;;;;;5016415;28;20333;-58
2022/01/10 10:23:14;;;;;;;;;;;;;;;;;;5014844;28;19963;-58
2022/01/10 10:25:40;;;;;;;;;;;;;;;;;;5015023;28;19944;-57
2022/01/10 10:28:05;;;;;;;;;;;;;;;;;;5014334;28;20386;-57
2022/01/10 10:30:31;;;;;;;;;;;;;;;;;;5014272;28;19917;-58
2022/01/10 10:32:56;;;;;;;;;;;;;;;;;;5015241;28;20444;-57
2022/01/10 10:35:22;;;;;;;;;;;;;;;;;;5013599;28;19921;-57
2022/01/10 10:37:48;;;;;;;;;;;;;;;;;;5014899;28;20384;-57
2022/01/10 10:40:14;;;;;;;;;;;;;;;;;;5015529;28;19929;-57
2022/01/10 10:42:39;;;;;;;;;;;;;;;;;;5015041;28;19979;-57
2022/01/10 10:45:06;;;;;;;;;;;;;;;;;;5014296;28;19926;-57
2022/01/10 10:47:31;;;;;;;;;;;;;;;;;;5015553;28;20009;-57
2022/01/10 10:49:57;;;;;;;;;;;;;;;;;;5016092;28;20310;-57
2022/01/10 10:52:22;;;;;;;;;;;;;;;;;;5014319;28;19925;-58
2022/01/10 10:54:47;;;;;;;;;;;;;;;;;;5015111;28;20409;-58
2022/01/10 10:57:14;;;;;;;;;;;;;;;;;;5015017;28;19929;-63
2022/01/10 10:59:43;;;;;;;;;;;;;;;;;;5013319;28;19925;-58
2022/01/10 11:02:09;;;;;;;;;;;;;;;;;;5014390;28;19979;-58
2022/01/10 11:04:34;;;;;;;;;;;;;;;;;;5015371;28;20012;-58
2022/01/10 11:07:00;;;;;;;;;;;;;;;;;;5015345;28;19968;-58
2022/01/10 11:09:25;;;;;;;;;;;;;;;;;;5013161;28;19932;-59
2022/01/10 11:11:51;;;;;;;;;;;;;;;;;;5013309;28;20434;-59
2022/01/10 11:14:17;;;;;;;;;;;;;;;;;;5014598;28;19971;-58
2022/01/10 11:16:42;;;;;;;;;;;;;;;;;;5012785;28;19921;-58
2022/01/10 11:19:07;;;;;;;;;;;;;;;;;;5012876;28;20635;-58
2022/01/10 11:21:33;;;;;;;;;;;;;;;;;;5013170;28;19936;-59
2022/01/10 11:23:58;;;;;;;;;;;;;;;;;;5014321;28;19967;-58
2022/01/10 11:26:24;;;;;;;;;;;;;;;;;;5014309;28;20019;-59
2022/01/10 11:28:49;;;;;;;;;;;;;;;;;;5013023;28;20017;-58
2022/01/10 11:31:16;;;;;;;;;;;;;;;;;;5015526;28;20372;-58
2022/01/10 11:33:42;;;;;;;;;;;;;;;;;;5012977;28;19929;-58
2022/01/10 11:36:10;;;;;;;;;;;;;;;;;;5013675;28;19921;-59
2022/01/10 11:38:36;;;;;;;;;;;;;;;;;;5010184;28;20018;-59
2022/01/10 11:41:01;;;;;;;;;;;;;;;;;;5013082;28;19928;-58
2022/01/10 11:43:26;;;;;;;;;;;;;;;;;;5012224;28;19925;-58
2022/01/10 11:45:52;;;;;;;;;;;;;;;;;;5012854;28;20459;-58
2022/01/10 11:48:17;;;;;;;;;;;;;;;;;;5011336;28;19928;-58
2022/01/10 11:50:43;;;;;;;;;;;;;;;;;;5010802;28;19933;-58
2022/01/10 11:53:09;;;;;;;;;;;;;;;;;;5012042;28;20409;-61
2022/01/10 11:55:35;;;;;;;;;;;;;;;;;;5011871;28;20322;-59
2022/01/10 11:58:00;;;;;;;;;;;;;;;;;;5011360;28;20036;-60
2022/01/10 12:00:25;;;;;;;;;;;;;;;;;;5011255;28;19937;-60
2022/01/10 12:02:51;;;;;;;;;;;;;;;;;;5012427;28;19928;-60
2022/01/10 12:05:16;;;;;;;;;;;;;;;;;;5012697;28;19983;-60
2022/01/10 12:07:42;;;;;;;;;;;;;;;;;;5010225;28;20040;-60
2022/01/10 12:10:07;;;;;;;;;;;;;;;;;;5013050;28;19932;-60
2022/01/10 12:12:35;;;;;;;;;;;;;;;;;;5013222;28;20020;-60
2022/01/10 12:15:00;;;;;;;;;;;;;;;;;;5012982;28;19929;-60
2022/01/10 12:17:26;;;;;;;;;;;;;;;;;;5012730;28;20032;-59
2022/01/10 12:19:52;;;;;;;;;;;;;;;;;;5011328;28;19925;-59
2022/01/10 12:22:17;;;;;;;;;;;;;;;;;;5010444;28;19955;-59
2022/01/10 12:24:43;;;;;;;;;;;;;;;;;;5011157;28;20282;-60
2022/01/10 12:27:09;;;;;;;;;;;;;;;;;;5010373;28;19928;-59
2022/01/10 12:29:34;;;;;;;;;;;;;;;;;;5011104;28;20562;-58
2022/01/10 12:32:00;;;;;;;;;;;;;;;;;;5012502;28;19925;-62
2022/01/10 12:34:25;;;;;;;;;;;;;;;;;;5012317;28;19952;-59
2022/01/10 12:36:51;;;;;;;;;;;;;;;;;;5010964;28;19971;-59
2022/01/10 12:39:21;;;;;;;;;;;;;;;;;;5026187;28;19921;-59
2022/01/10 12:41:46;;;;;;;;;;;;;;;;;;5010390;28;19940;-59
2022/01/10 12:44:11;;;;;;;;;;;;;;;;;;5013254;28;20542;-58
2022/01/10 12:46:37;;;;;;;;;;;;;;;;;;5010751;28;19957;-59
2022/01/10 12:49:02;;;;;;;;;;;;;;;;;;5011028;28;19931;-59
2022/01/10 12:51:28;;;;;;;;;;;;;;;;;;5012270;28;20418;-58
2022/01/10 12:53:53;;;;;;;;;;;;;;;;;;5009201;28;20170;-59
2022/01/10 12:56:18;;;;;;;;;;;;;;;;;;5011418;28;19925;-58
2022/01/10 12:58:44;;;;;;;;;;;;;;;;;;5011582;28;19921;-57
2022/01/10 13:01:09;;;;;;;;;;;;;;;;;;5015368;28;20016;-59
2022/01/10 13:03:35;;;;;;;;;;;;;;;;;;5011225;28;20024;-58
2022/01/10 13:06:02;;;;;;;;;;;;;;;;;;5012141;28;19921;-59
2022/01/10 13:08:28;;;;;;;;;;;;;;;;;;5010018;28;19932;-60
2022/01/10 13:10:55;;;;;;;;;;;;;;;;;;5013240;28;20022;-60
2022/01/10 13:13:20;;;;;;;;;;;;;;;;;;5014526;28;19921;-59
2022/01/10 13:15:46;;;;;;;;;;;;;;;;;;5016083;28;20451;-58
2022/01/10 13:18:12;;;;;;;;;;;;;;;;;;5015069;28;19928;-58
2022/01/10 13:20:38;;;;;;;;;;;;;;;;;;5014022;28;19932;-58
2022/01/10 13:23:04;;;;;;;;;;;;;;;;;;5016203;28;21323;-59
2022/01/10 13:25:29;;;;;;;;;;;;;;;;;;5013918;28;19984;-56
2022/01/10 13:27:56;;;;;;;;;;;;;;;;;;5014206;28;19925;-59
2022/01/10 13:30:26;;;;;;;;;;;;;;;;;;5014535;28;20066;-58
2022/01/10 13:32:51;;;;;;;;;;;;;;;;;;5015751;28;19926;-59
2022/01/10 13:35:17;;;;;;;;;;;;;;;;;;5015106;28;20015;-58
2022/01/10 13:37:42;;;;;;;;;;;;;;;;;;5015501;28;20014;-57
2022/01/10 13:40:07;;;;;;;;;;;;;;;;;;5015771;28;19933;-58
2022/01/10 13:42:33;;;;;;;;;;;;;;;;;;5016831;28;19936;-56
2022/01/10 13:45:01;;;;;;;;;;;;;;;;;;5014338;28;19922;-58
2022/01/10 13:47:26;;;;;;;;;;;;;;;;;;5015211;28;20542;-61
2022/01/10 13:49:52;;;;;;;;;;;;;;;;;;5015782;28;19933;-59
2022/01/10 13:52:17;;;;;;;;;;;;;;;;;;5014188;28;19928;-59
2022/01/10 13:54:43;;;;;;;;;;;;;;;;;;5014223;28;19960;-59
2022/01/10 13:57:08;;;;;;;;;;;;;;;;;;5029105;28;19922;-59
2022/01/10 13:59:33;;;;;;;;;;;;;;;;;;5013851;28;19925;-59
2022/01/10 14:01:59;;;;;;;;;;;;;;;;;;5015252;28;19936;-58
2022/01/10 14:04:25;;;;;;;;;;;;;;;;;;5014686;28;20394;-59
2022/01/10 14:06:50;;;;;;;;;;;;;;;;;;5010170;28;20570;-58
2022/01/10 14:09:16;;;;;;;;;;;;;;;;;;5014834;28;19931;-59
2022/01/10 14:11:41;;;;;;;;;;;;;;;;;;5012760;28;19928;-59
2022/01/10 14:14:06;;;;;;;;;;;;;;;;;;5013871;28;19931;-58
2022/01/10 14:16:34;;;;;;;;;;;;;;;;;;5015091;28;20357;-59
2022/01/10 14:19:00;;;;;;;;;;;;;;;;;;5012604;28;19944;-57
2022/01/10 14:21:25;;;;;;;;;;;;;;;;;;5014888;28;19933;-58
2022/01/10 14:23:51;;;;;;;;;;;;;;;;;;5013670;28;20455;-59
2022/01/10 14:26:16;;;;;;;;;;;;;;;;;;5014484;28;19964;-59
2022/01/10 14:28:41;;;;;;;;;;;;;;;;;;5013313;28;19925;-59
2022/01/10 14:31:07;;;;;;;;;;;;;;;;;;5015800;28;19945;-56
2022/01/10 14:33:32;;;;;;;;;;;;;;;;;;5014221;28;20076;-58
2022/01/10 14:35:58;;;;;;;;;;;;;;;;;;5014176;28;20004;-58
2022/01/10 14:38:23;;;;;;;;;;;;;;;;;;5000777;28;20313;-59
2022/01/10 14:40:48;;;;;;;;;;;;;;;;;;5015683;28;19999;-58
2022/01/10 14:43:14;;;;;;;;;;;;;;;;;;5015029;28;20636;-59
2022/01/10 14:45:39;;;;;;;;;;;;;;;;;;5002355;28;19925;-59
2022/01/10 14:48:05;;;;;;;;;;;;;;;;;;5013607;28;19932;-59
2022/01/10 14:50:30;;;;;;;;;;;;;;;;;;5017366;28;19941;-59
2022/01/10 14:52:55;;;;;;;;;;;;;;;;;;5016449;28;19971;-59
2022/01/10 14:55:21;;;;;;;;;;;;;;;;;;5014692;28;19925;-58
2022/01/10 14:57:46;;;;;;;;;;;;;;;;;;5015800;28;19943;-58
2022/01/10 15:00:12;;;;;;;;;;;;;;;;;;5016978;28;19964;-57
2022/01/10 15:02:37;;;;;;;;;;;;;;;;;;5016156;28;19972;-58
2022/01/10 15:05:02;;;;;;;;;;;;;;;;;;5031297;28;19927;-59
2022/01/10 15:07:28;;;;;;;;;;;;;;;;;;5015552;28;20012;-58
2022/01/10 15:09:53;;;;;;;;;;;;;;;;;;5013350;28;19921;-58
2022/01/10 15:12:19;;;;;;;;;;;;;;;;;;5012751;28;19925;-59
2022/01/10 15:14:44;;;;;;;;;;;;;;;;;;5011972;28;19929;-59
2022/01/10 15:17:09;;;;;;;;;;;;;;;;;;5013703;28;19925;-58
2022/01/10 15:19:35;;;;;;;;;;;;;;;;;;5011943;28;20498;-58
2022/01/10 15:22:00;;;;;;;;;;;;;;;;;;5009898;28;19929;-58
2022/01/10 15:24:26;;;;;;;;;;;;;;;;;;5012008;28;19937;-58
2022/01/10 15:26:51;;;;;;;;;;;;;;;;;;5012943;28;19921;-56
2022/01/10 15:29:17;;;;;;;;;;;;;;;;;;5012959;28;19925;-57
2022/01/10 15:31:42;;;;;;;;;;;;;;;;;;5012398;28;19925;-57
2022/01/10 15:34:07;;;;;;;;;;;;;;;;;;5012478;28;19959;-58
2022/01/10 15:36:33;;;;;;;;;;;;;;;;;;5012688;28;19925;-57
2022/01/10 15:38:58;;;;;;;;;;;;;;;;;;5011925;28;20026;-58
2022/01/10 15:41:24;;;;;;;;;;;;;;;;;;5012850;28;20417;-58
2022/01/10 15:43:49;;;;;;;;;;;;;;;;;;5014035;28;20051;-58
2022/01/10 15:46:15;;;;;;;;;;;;;;;;;;5011093;28;19924;-57
2022/01/10 15:48:40;;;;;;;;;;;;;;;;;;5012513;28;20011;-58
2022/01/10 15:51:07;;;;;;;;;;;;;;;;;;5013565;28;19933;-58
2022/01/10 15:53:33;;;;;;;;;;;;;;;;;;5012444;28;19982;-57
2022/01/10 15:55:59;;;;;;;;;;;;;;;;;;5012566;28;19922;-57
2022/01/10 15:58:24;;;;;;;;;;;;;;;;;;5010708;28;19940;-57
2022/01/10 16:00:55;;;;;;;;;;;;;;;;;;5013079;28;19994;-57
2022/01/10 16:03:20;;;;;;;;;;;;;;;;;;5010815;28;19925;-57
2022/01/10 16:05:47;;;;;;;;;;;;;;;;;;5012466;28;20382;-57
2022/01/10 16:08:12;;;;;;;;;;;;;;;;;;5010689;28;19921;-57
2022/01/10 16:10:38;;;;;;;;;;;;;;;;;;5011010;28;19944;-58
2022/01/10 16:13:03;;;;;;;;;;;;;;;;;;5011446;28;19925;-57
2022/01/10 16:15:28;;;;;;;;;;;;;;;;;;5011756;28;20011;-58
2022/01/10 16:17:54;;;;;;;;;;;;;;;;;;5012223;28;19921;-57
2022/01/10 16:20:19;;;;;;;;;;;;;;;;;;5010965;28;19929;-59
2022/01/10 16:22:45;;;;;;;;;;;;;;;;;;5012241;28;20674;-59
2022/01/10 16:25:10;;;;;;;;;;;;;;;;;;5012669;28;19932;-59
2022/01/10 16:27:35;;;;;;;;;;;;;;;;;;5012140;28;19956;-59
2022/01/10 16:30:01;;;;;;;;;;;;;;;;;;5012817;28;19921;-57
2022/01/10 16:32:26;;;;;;;;;;;;;;;;;;5010855;28;19928;-57
2022/01/10 16:34:56;;;;;;;;;;;;;;;;;;5011724;28;19921;-58
2022/01/10 16:37:21;;;;;;;;;;;;;;;;;;5011398;28;19971;-58
2022/01/10 16:39:47;;;;;;;;;;;;;;;;;;5012302;28;20020;-58
2022/01/10 16:42:14;;;;;;;;;;;;;;;;;;5011764;28;19941;-59
2022/01/10 16:44:39;;;;;;;;;;;;;;;;;;5012467;28;19949;-59
2022/01/10 16:47:05;;;;;;;;;;;;;;;;;;5011835;28;20278;-59